sensor_id;sensor_type;location;lat;lon;timestamp;pressure;altitude;pressure_sealevel;temperature
78225;BMP280;67498;53.650;10.090;2023-09-19T00:00:42;100232.72;;;16.97
78225;BMP280;67498;53.650;10.090;2023-09-19T00:03:09;100229.88;;;17.01
78225;BMP280;67498;53.650;10.090;2023-09-19T00:05:35;100241.16;;;17.01
78225;BMP280;67498;53.650;10.090;2023-09-19T00:08:01;100231.09;;;17.00
78225;BMP280;67498;53.650;10.090;2023-09-19T00:10:30;100236.47;;;17.05
78225;BMP280;67498;53.650;10.090;2023-09-19T00:12:57;100239.09;;;17.05
78225;BMP280;67498;53.650;10.090;2023-09-19T00:15:25;100238.38;;;17.05
78225;BMP280;67498;53.650;10.090;2023-09-19T00:17:54;100238.81;;;17.03
78225;BMP280;67498;53.650;10.090;2023-09-19T00:20:19;100236.81;;;16.98
78225;BMP280;67498;53.650;10.090;2023-09-19T00:22:48;100242.63;;;17.02
78225;BMP280;67498;53.650;10.090;2023-09-19T00:25:14;100231.97;;;16.97
78225;BMP280;67498;53.650;10.090;2023-09-19T00:27:41;100240.34;;;16.95
78225;BMP280;67498;53.650;10.090;2023-09-19T00:30:11;100245.91;;;16.97
78225;BMP280;67498;53.650;10.090;2023-09-19T00:32:41;100242.38;;;17.00
78225;BMP280;67498;53.650;10.090;2023-09-19T00:35:07;100250.28;;;17.00
78225;BMP280;67498;53.650;10.090;2023-09-19T00:37:34;100255.56;;;17.00
78225;BMP280;67498;53.650;10.090;2023-09-19T00:40:01;100248.53;;;16.97
78225;BMP280;67498;53.650;10.090;2023-09-19T00:42:26;100250.44;;;16.97
78225;BMP280;67498;53.650;10.090;2023-09-19T00:44:51;100247.81;;;16.97
78225;BMP280;67498;53.650;10.090;2023-09-19T00:47:17;100241.69;;;16.90
78225;BMP280;67498;53.650;10.090;2023-09-19T00:49:45;100240.25;;;16.89
78225;BMP280;67498;53.650;10.090;2023-09-19T00:52:14;100258.72;;;16.89
78225;BMP280;67498;53.650;10.090;2023-09-19T00:54:39;100250.81;;;16.89
78225;BMP280;67498;53.650;10.090;2023-09-19T00:57:04;100257.69;;;16.87
78225;BMP280;67498;53.650;10.090;2023-09-19T00:59:30;100264.88;;;16.86
78225;BMP280;67498;53.650;10.090;2023-09-19T01:01:56;100258.13;;;16.85
78225;BMP280;67498;53.650;10.090;2023-09-19T01:04:22;100273.50;;;16.87
78225;BMP280;67498;53.650;10.090;2023-09-19T01:06:48;100263.56;;;16.82
78225;BMP280;67498;53.650;10.090;2023-09-19T01:09:18;100250.84;;;16.80
78225;BMP280;67498;53.650;10.090;2023-09-19T01:11:46;100269.72;;;16.88
78225;BMP280;67498;53.650;10.090;2023-09-19T01:17:25;100277.19;;;16.89
78225;BMP280;67498;53.650;10.090;2023-09-19T01:25:37;100274.13;;;16.82
78225;BMP280;67498;53.650;10.090;2023-09-19T01:28:28;100273.97;;;16.85
78225;BMP280;67498;53.650;10.090;2023-09-19T01:30:58;100275.16;;;16.84
78225;BMP280;67498;53.650;10.090;2023-09-19T01:33:25;100279.69;;;16.84
78225;BMP280;67498;53.650;10.090;2023-09-19T01:35:51;100281.16;;;16.85
78225;BMP280;67498;53.650;10.090;2023-09-19T01:38:18;100278.97;;;16.83
78225;BMP280;67498;53.650;10.090;2023-09-19T01:40:54;100281.03;;;16.79
78225;BMP280;67498;53.650;10.090;2023-09-19T01:43:38;100282.50;;;16.80
78225;BMP280;67498;53.650;10.090;2023-09-19T01:46:14;100288.78;;;16.83
78225;BMP280;67498;53.650;10.090;2023-09-19T01:48:49;100279.69;;;16.84
78225;BMP280;67498;53.650;10.090;2023-09-19T01:51:32;100291.44;;;16.83
78225;BMP280;67498;53.650;10.090;2023-09-19T01:54:09;100280.16;;;16.82
78225;BMP280;67498;53.650;10.090;2023-09-19T01:56:57;100297.44;;;16.83
78225;BMP280;67498;53.650;10.090;2023-09-19T01:59:34;100305.03;;;16.81
78225;BMP280;67498;53.650;10.090;2023-09-19T02:02:00;100304.78;;;16.79
78225;BMP280;67498;53.650;10.090;2023-09-19T02:04:26;100301.84;;;16.77
78225;BMP280;67498;53.650;10.090;2023-09-19T02:06:52;100303.88;;;16.82
78225;BMP280;67498;53.650;10.090;2023-09-19T02:09:18;100305.03;;;16.81
78225;BMP280;67498;53.650;10.090;2023-09-19T02:11:43;100308.31;;;16.76
78225;BMP280;67498;53.650;10.090;2023-09-19T02:14:08;100316.94;;;16.77
78225;BMP280;67498;53.650;10.090;2023-09-19T02:16:37;100321.22;;;16.74
78225;BMP280;67498;53.650;10.090;2023-09-19T02:19:02;100322.56;;;16.70
78225;BMP280;67498;53.650;10.090;2023-09-19T02:21:31;100322.25;;;16.67
78225;BMP280;67498;53.650;10.090;2023-09-19T02:23:57;100328.00;;;16.66
78225;BMP280;67498;53.650;10.090;2023-09-19T02:26:22;100341.34;;;16.62
78225;BMP280;67498;53.650;10.090;2023-09-19T02:28:52;100340.03;;;16.58
78225;BMP280;67498;53.650;10.090;2023-09-19T02:31:18;100329.09;;;16.50
78225;BMP280;67498;53.650;10.090;2023-09-19T02:33:43;100333.47;;;16.53
78225;BMP280;67498;53.650;10.090;2023-09-19T02:36:09;100334.66;;;16.52
78225;BMP280;67498;53.650;10.090;2023-09-19T02:38:34;100337.41;;;16.49
78225;BMP280;67498;53.650;10.090;2023-09-19T02:40:59;100342.44;;;16.47
78225;BMP280;67498;53.650;10.090;2023-09-19T02:43:25;100336.88;;;16.45
78225;BMP280;67498;53.650;10.090;2023-09-19T02:45:51;100331.75;;;16.41
78225;BMP280;67498;53.650;10.090;2023-09-19T02:48:18;100348.56;;;16.44
78225;BMP280;67498;53.650;10.090;2023-09-19T02:50:44;100340.97;;;16.46
78225;BMP280;67498;53.650;10.090;2023-09-19T02:53:10;100341.16;;;16.42
78225;BMP280;67498;53.650;10.090;2023-09-19T02:55:39;100342.59;;;16.43
78225;BMP280;67498;53.650;10.090;2023-09-19T02:58:06;100345.94;;;16.44
78225;BMP280;67498;53.650;10.090;2023-09-19T03:00:33;100337.47;;;16.39
78225;BMP280;67498;53.650;10.090;2023-09-19T03:03:02;100341.56;;;16.40
78225;BMP280;67498;53.650;10.090;2023-09-19T03:05:27;100325.75;;;16.40
78225;BMP280;67498;53.650;10.090;2023-09-19T03:07:56;100337.19;;;16.47
78225;BMP280;67498;53.650;10.090;2023-09-19T03:10:22;100343.91;;;16.48
78225;BMP280;67498;53.650;10.090;2023-09-19T03:12:48;100338.63;;;16.48
78225;BMP280;67498;53.650;10.090;2023-09-19T03:15:14;100337.00;;;16.50
78225;BMP280;67498;53.650;10.090;2023-09-19T03:17:43;100357.19;;;16.53
78225;BMP280;67498;53.650;10.090;2023-09-19T03:20:09;100345.91;;;16.53
78225;BMP280;67498;53.650;10.090;2023-09-19T03:22:37;100360.56;;;16.54
78225;BMP280;67498;53.650;10.090;2023-09-19T03:25:03;100346.38;;;16.51
78225;BMP280;67498;53.650;10.090;2023-09-19T03:27:35;100358.94;;;16.56
78225;BMP280;67498;53.650;10.090;2023-09-19T03:30:01;100352.91;;;16.56
78225;BMP280;67498;53.650;10.090;2023-09-19T03:32:30;100358.38;;;16.52
78225;BMP280;67498;53.650;10.090;2023-09-19T03:34:55;100360.09;;;16.55
78225;BMP280;67498;53.650;10.090;2023-09-19T03:37:21;100368.47;;;16.54
78225;BMP280;67498;53.650;10.090;2023-09-19T03:39:46;100358.06;;;16.50
78225;BMP280;67498;53.650;10.090;2023-09-19T03:42:11;100368.47;;;16.54
78225;BMP280;67498;53.650;10.090;2023-09-19T03:44:37;100367.72;;;16.53
78225;BMP280;67498;53.650;10.090;2023-09-19T03:47:02;100376.38;;;16.54
78225;BMP280;67498;53.650;10.090;2023-09-19T03:49:29;100371.97;;;16.51
78225;BMP280;67498;53.650;10.090;2023-09-19T03:51:55;100367.50;;;16.42
78225;BMP280;67498;53.650;10.090;2023-09-19T03:54:20;100370.53;;;16.50
78225;BMP280;67498;53.650;10.090;2023-09-19T03:56:46;100373.88;;;16.50
78225;BMP280;67498;53.650;10.090;2023-09-19T03:59:11;100364.81;;;16.51
78225;BMP280;67498;53.650;10.090;2023-09-19T04:01:37;100377.44;;;16.47
78225;BMP280;67498;53.650;10.090;2023-09-19T04:04:03;100384.84;;;16.49
78225;BMP280;67498;53.650;10.090;2023-09-19T04:06:36;100387.81;;;16.41
78225;BMP280;67498;53.650;10.090;2023-09-19T04:09:03;100382.28;;;16.39
78225;BMP280;67498;53.650;10.090;2023-09-19T04:11:29;100388.28;;;16.40
78225;BMP280;67498;53.650;10.090;2023-09-19T04:13:55;100392.56;;;16.37
78225;BMP280;67498;53.650;10.090;2023-09-19T04:16:20;100392.66;;;16.34
78225;BMP280;67498;53.650;10.090;2023-09-19T04:18:46;100400.19;;;16.26
78225;BMP280;67498;53.650;10.090;2023-09-19T04:21:11;100402.50;;;16.24
78225;BMP280;67498;53.650;10.090;2023-09-19T04:23:36;100406.34;;;16.14
78225;BMP280;67498;53.650;10.090;2023-09-19T04:26:02;100404.59;;;16.11
78225;BMP280;67498;53.650;10.090;2023-09-19T04:28:29;100404.59;;;16.02
78225;BMP280;67498;53.650;10.090;2023-09-19T04:30:55;100415.13;;;16.02
78225;BMP280;67498;53.650;10.090;2023-09-19T04:33:20;100441.31;;;15.96
78225;BMP280;67498;53.650;10.090;2023-09-19T04:35:49;100425.97;;;15.85
78225;BMP280;67498;53.650;10.090;2023-09-19T04:38:14;100442.91;;;15.84
78225;BMP280;67498;53.650;10.090;2023-09-19T04:40:40;100456.66;;;15.79
78225;BMP280;67498;53.650;10.090;2023-09-19T04:43:06;100438.81;;;15.74
78225;BMP280;67498;53.650;10.090;2023-09-19T04:45:32;100440.13;;;15.70
78225;BMP280;67498;53.650;10.090;2023-09-19T04:47:58;100454.75;;;15.61
78225;BMP280;67498;53.650;10.090;2023-09-19T04:50:23;100457.09;;;15.59
78225;BMP280;67498;53.650;10.090;2023-09-19T04:52:51;100460.16;;;15.58
78225;BMP280;67498;53.650;10.090;2023-09-19T04:55:18;100457.38;;;15.52
78225;BMP280;67498;53.650;10.090;2023-09-19T04:57:48;100447.44;;;15.47
78225;BMP280;67498;53.650;10.090;2023-09-19T05:00:15;100457.53;;;15.49
78225;BMP280;67498;53.650;10.090;2023-09-19T05:02:42;100454.72;;;15.43
78225;BMP280;67498;53.650;10.090;2023-09-19T05:05:08;100463.34;;;15.44
78225;BMP280;67498;53.650;10.090;2023-09-19T05:07:34;100456.91;;;15.35
78225;BMP280;67498;53.650;10.090;2023-09-19T05:10:00;100468.47;;;15.38
78225;BMP280;67498;53.650;10.090;2023-09-19T05:12:28;100470.78;;;15.36
78225;BMP280;67498;53.650;10.090;2023-09-19T05:14:53;100470.19;;;15.32
78225;BMP280;67498;53.650;10.090;2023-09-19T05:17:18;100466.94;;;15.28
78225;BMP280;67498;53.650;10.090;2023-09-19T05:19:44;100471.94;;;15.26
78225;BMP280;67498;53.650;10.090;2023-09-19T05:22:11;100476.16;;;15.23
78225;BMP280;67498;53.650;10.090;2023-09-19T05:24:37;100474.66;;;15.22
78225;BMP280;67498;53.650;10.090;2023-09-19T05:27:04;100481.41;;;15.23
78225;BMP280;67498;53.650;10.090;2023-09-19T05:29:29;100474.41;;;15.20
78225;BMP280;67498;53.650;10.090;2023-09-19T05:31:55;100475.22;;;15.17
78225;BMP280;67498;53.650;10.090;2023-09-19T05:34:20;100474.78;;;15.09
78225;BMP280;67498;53.650;10.090;2023-09-19T05:36:45;100487.06;;;15.12
78225;BMP280;67498;53.650;10.090;2023-09-19T05:39:10;100478.13;;;15.10
78225;BMP280;67498;53.650;10.090;2023-09-19T05:41:37;100464.66;;;14.99
78225;BMP280;67498;53.650;10.090;2023-09-19T05:44:04;100475.66;;;15.06
78225;BMP280;67498;53.650;10.090;2023-09-19T05:46:32;100457.22;;;14.97
78225;BMP280;67498;53.650;10.090;2023-09-19T05:48:57;100474.72;;;15.00
78225;BMP280;67498;53.650;10.090;2023-09-19T05:51:23;100487.31;;;15.05
78225;BMP280;67498;53.650;10.090;2023-09-19T05:53:48;100477.34;;;15.00
78225;BMP280;67498;53.650;10.090;2023-09-19T05:56:14;100482.19;;;15.02
78225;BMP280;67498;53.650;10.090;2023-09-19T05:58:40;100483.94;;;15.05
78225;BMP280;67498;53.650;10.090;2023-09-19T06:01:08;100479.56;;;15.02
78225;BMP280;67498;53.650;10.090;2023-09-19T06:03:34;100491.84;;;15.05
78225;BMP280;67498;53.650;10.090;2023-09-19T06:06:01;100496.84;;;15.12
78225;BMP280;67498;53.650;10.090;2023-09-19T06:08:26;100480.97;;;15.15
78225;BMP280;67498;53.650;10.090;2023-09-19T06:10:51;100483.75;;;15.21
78225;BMP280;67498;53.650;10.090;2023-09-19T06:13:17;100491.34;;;15.28
78225;BMP280;67498;53.650;10.090;2023-09-19T06:15:43;100481.47;;;15.32
78225;BMP280;67498;53.650;10.090;2023-09-19T06:18:13;100502.09;;;15.43
78225;BMP280;67498;53.650;10.090;2023-09-19T06:20:46;100492.00;;;15.51
78225;BMP280;67498;53.650;10.090;2023-09-19T06:23:12;100502.56;;;15.60
78225;BMP280;67498;53.650;10.090;2023-09-19T06:25:38;100509.47;;;15.67
78225;BMP280;67498;53.650;10.090;2023-09-19T06:28:04;100508.88;;;15.72
78225;BMP280;67498;53.650;10.090;2023-09-19T06:30:30;100516.66;;;15.75
78225;BMP280;67498;53.650;10.090;2023-09-19T06:32:58;100520.00;;;15.76
78225;BMP280;67498;53.650;10.090;2023-09-19T06:35:24;100521.03;;;15.78
78225;BMP280;67498;53.650;10.090;2023-09-19T06:37:51;100513.56;;;15.77
78225;BMP280;67498;53.650;10.090;2023-09-19T06:40:16;100523.38;;;15.85
78225;BMP280;67498;53.650;10.090;2023-09-19T06:42:43;100523.38;;;15.85
78225;BMP280;67498;53.650;10.090;2023-09-19T06:45:10;100533.31;;;15.90
78225;BMP280;67498;53.650;10.090;2023-09-19T06:47:43;100512.56;;;15.93
78225;BMP280;67498;53.650;10.090;2023-09-19T06:50:09;100520.75;;;15.95
78225;BMP280;67498;53.650;10.090;2023-09-19T06:52:39;100524.56;;;16.03
78225;BMP280;67498;53.650;10.090;2023-09-19T06:55:05;100512.56;;;16.02
78225;BMP280;67498;53.650;10.090;2023-09-19T06:57:31;100517.56;;;16.09
78225;BMP280;67498;53.650;10.090;2023-09-19T06:59:57;100533.78;;;16.16
78225;BMP280;67498;53.650;10.090;2023-09-19T07:02:22;100538.34;;;16.16
78225;BMP280;67498;53.650;10.090;2023-09-19T07:04:47;100540.50;;;16.17
78225;BMP280;67498;53.650;10.090;2023-09-19T07:07:14;100551.34;;;16.20
78225;BMP280;67498;53.650;10.090;2023-09-19T07:09:40;100552.38;;;16.22
78225;BMP280;67498;53.650;10.090;2023-09-19T07:12:05;100551.34;;;16.20
78225;BMP280;67498;53.650;10.090;2023-09-19T07:14:30;100556.22;;;16.21
78225;BMP280;67498;53.650;10.090;2023-09-19T07:16:56;100562.19;;;16.31
78225;BMP280;67498;53.650;10.090;2023-09-19T07:19:21;100567.06;;;16.32
78225;BMP280;67498;53.650;10.090;2023-09-19T07:21:47;100560.00;;;16.38
78225;BMP280;67498;53.650;10.090;2023-09-19T07:24:12;100568.94;;;16.41
78225;BMP280;67498;53.650;10.090;2023-09-19T07:26:38;100560.16;;;16.44
78225;BMP280;67498;53.650;10.090;2023-09-19T07:29:05;100574.63;;;16.49
78225;BMP280;67498;53.650;10.090;2023-09-19T07:31:32;100562.78;;;16.53
78225;BMP280;67498;53.650;10.090;2023-09-19T07:33:58;100563.38;;;16.48
78225;BMP280;67498;53.650;10.090;2023-09-19T07:36:24;100571.41;;;16.54
78225;BMP280;67498;53.650;10.090;2023-09-19T07:38:49;100576.41;;;16.52
78225;BMP280;67498;53.650;10.090;2023-09-19T07:41:15;100584.31;;;16.52
78225;BMP280;67498;53.650;10.090;2023-09-19T07:43:40;100573.91;;;16.48
78225;BMP280;67498;53.650;10.090;2023-09-19T07:46:06;100597.50;;;16.52
78225;BMP280;67498;53.650;10.090;2023-09-19T07:48:33;100588.84;;;16.51
78225;BMP280;67498;53.650;10.090;2023-09-19T07:51:05;100589.72;;;16.48
78225;BMP280;67498;53.650;10.090;2023-09-19T07:53:31;100588.09;;;16.41
78225;BMP280;67498;53.650;10.090;2023-09-19T07:56:06;100595.28;;;16.41
78225;BMP280;67498;53.650;10.090;2023-09-19T07:58:32;100582.69;;;16.36
78225;BMP280;67498;53.650;10.090;2023-09-19T08:01:08;100580.22;;;16.32
78225;BMP280;67498;53.650;10.090;2023-09-19T08:03:39;100570.81;;;16.22
78225;BMP280;67498;53.650;10.090;2023-09-19T08:06:06;100574.75;;;16.17
78225;BMP280;67498;53.650;10.090;2023-09-19T08:08:32;100582.25;;;16.19
78225;BMP280;67498;53.650;10.090;2023-09-19T08:10:59;100592.31;;;16.11
78225;BMP280;67498;53.650;10.090;2023-09-19T08:13:25;100588.97;;;16.11
78225;BMP280;67498;53.650;10.090;2023-09-19T08:15:51;100591.44;;;16.05
78225;BMP280;67498;53.650;10.090;2023-09-19T08:18:18;100584.00;;;16.04
78225;BMP280;67498;53.650;10.090;2023-09-19T08:20:49;100594.22;;;16.02
78225;BMP280;67498;53.650;10.090;2023-09-19T08:23:15;100604.63;;;16.05
78225;BMP280;67498;53.650;10.090;2023-09-19T08:25:42;100595.69;;;16.03
78225;BMP280;67498;53.650;10.090;2023-09-19T08:28:07;100602.88;;;16.11
78225;BMP280;67498;53.650;10.090;2023-09-19T08:30:39;100593.38;;;16.14
78225;BMP280;67498;53.650;10.090;2023-09-19T08:33:05;100592.66;;;16.23
78225;BMP280;67498;53.650;10.090;2023-09-19T08:35:31;100601.84;;;16.27
78225;BMP280;67498;53.650;10.090;2023-09-19T08:37:57;100596.56;;;16.27
78225;BMP280;67498;53.650;10.090;2023-09-19T08:40:22;100594.56;;;16.31
78225;BMP280;67498;53.650;10.090;2023-09-19T08:42:54;100585.50;;;16.32
78225;BMP280;67498;53.650;10.090;2023-09-19T08:45:20;100586.06;;;16.36
78225;BMP280;67498;53.650;10.090;2023-09-19T08:48:22;100594.97;;;16.39
78225;BMP280;67498;53.650;10.090;2023-09-19T08:53:36;100592.34;;;16.39
78225;BMP280;67498;53.650;10.090;2023-09-19T08:56:08;100586.81;;;16.37
78225;BMP280;67498;53.650;10.090;2023-09-19T08:58:45;100589.13;;;16.44
78225;BMP280;67498;53.650;10.090;2023-09-19T09:01:14;100591.63;;;16.48
78225;BMP280;67498;53.650;10.090;2023-09-19T09:03:40;100592.66;;;16.50
78225;BMP280;67498;53.650;10.090;2023-09-19T09:06:08;100599.53;;;16.57
78225;BMP280;67498;53.650;10.090;2023-09-19T09:08:38;100601.41;;;16.65
78225;BMP280;67498;53.650;10.090;2023-09-19T09:11:05;100606.25;;;16.67
78225;BMP280;67498;53.650;10.090;2023-09-19T09:13:34;100606.56;;;16.69
78225;BMP280;67498;53.650;10.090;2023-09-19T09:15:59;100617.84;;;16.70
78225;BMP280;67498;53.650;10.090;2023-09-19T09:18:24;100619.16;;;16.74
78225;BMP280;67498;53.650;10.090;2023-09-19T09:20:49;100622.66;;;16.80
78225;BMP280;67498;53.650;10.090;2023-09-19T09:23:15;100602.44;;;16.77
78225;BMP280;67498;53.650;10.090;2023-09-19T09:25:54;100618.56;;;16.88
78225;BMP280;67498;53.650;10.090;2023-09-19T09:28:26;100610.91;;;16.90
78225;BMP280;67498;53.650;10.090;2023-09-19T09:30:53;100623.06;;;16.97
78225;BMP280;67498;53.650;10.090;2023-09-19T09:33:18;100618.66;;;17.03
78225;BMP280;67498;53.650;10.090;2023-09-19T09:36:00;100620.69;;;17.08
78225;BMP280;67498;53.650;10.090;2023-09-19T09:38:28;100620.25;;;17.19
78225;BMP280;67498;53.650;10.090;2023-09-19T09:40:57;100614.78;;;17.23
78225;BMP280;67498;53.650;10.090;2023-09-19T09:43:36;100610.38;;;17.29
78225;BMP280;67498;53.650;10.090;2023-09-19T09:46:08;100611.81;;;17.39
78225;BMP280;67498;53.650;10.090;2023-09-19T09:51:42;100629.91;;;17.64
78225;BMP280;67498;53.650;10.090;2023-09-19T09:54:18;100626.03;;;17.75
78225;BMP280;67498;53.650;10.090;2023-09-19T09:56:57;100625.25;;;17.83
78225;BMP280;67498;53.650;10.090;2023-09-19T10:02:14;100638.53;;;17.98
78225;BMP280;67498;53.650;10.090;2023-09-19T10:04:40;100635.44;;;18.00
78225;BMP280;67498;53.650;10.090;2023-09-19T10:07:30;100621.16;;;18.06
78225;BMP280;67498;53.650;10.090;2023-09-19T10:10:33;100631.63;;;18.15
78225;BMP280;67498;53.650;10.090;2023-09-19T10:13:11;100631.03;;;18.21
78225;BMP280;67498;53.650;10.090;2023-09-19T10:15:44;100645.44;;;18.34
78225;BMP280;67498;53.650;10.090;2023-09-19T10:18:20;100621.13;;;18.30
78225;BMP280;67498;53.650;10.090;2023-09-19T10:20:46;100633.88;;;18.32
78225;BMP280;67498;53.650;10.090;2023-09-19T10:23:12;100637.53;;;18.34
78225;BMP280;67498;53.650;10.090;2023-09-19T10:25:42;100637.09;;;18.36
78225;BMP280;67498;53.650;10.090;2023-09-19T10:28:12;100633.56;;;18.39
78225;BMP280;67498;53.650;10.090;2023-09-19T10:30:44;100636.03;;;18.42
78225;BMP280;67498;53.650;10.090;2023-09-19T10:33:11;100636.56;;;18.47
78225;BMP280;67498;53.650;10.090;2023-09-19T10:35:45;100639.75;;;18.51
78225;BMP280;67498;53.650;10.090;2023-09-19T10:38:11;100630.28;;;18.59
78225;BMP280;67498;53.650;10.090;2023-09-19T10:40:37;100610.38;;;18.63
78225;BMP280;67498;53.650;10.090;2023-09-19T10:43:12;100612.06;;;18.76
78225;BMP280;67498;53.650;10.090;2023-09-19T10:45:38;100618.09;;;18.76
78225;BMP280;67498;53.650;10.090;2023-09-19T10:48:05;100609.94;;;18.80
78225;BMP280;67498;53.650;10.090;2023-09-19T10:50:36;100627.56;;;18.83
78225;BMP280;67498;53.650;10.090;2023-09-19T10:53:07;100630.09;;;18.77
78225;BMP280;67498;53.650;10.090;2023-09-19T10:55:36;100623.72;;;18.69
78225;BMP280;67498;53.650;10.090;2023-09-19T10:58:02;100613.69;;;18.73
78225;BMP280;67498;53.650;10.090;2023-09-19T11:03:22;100628.56;;;18.70
78225;BMP280;67498;53.650;10.090;2023-09-19T11:06:01;100651.00;;;18.75
78225;BMP280;67498;53.650;10.090;2023-09-19T11:08:30;100626.38;;;18.69
78225;BMP280;67498;53.650;10.090;2023-09-19T11:10:57;100648.81;;;18.74
78225;BMP280;67498;53.650;10.090;2023-09-19T11:13:27;100628.09;;;18.72
78225;BMP280;67498;53.650;10.090;2023-09-19T11:26:47;100626.25;;;18.63
78225;BMP280;67498;53.650;10.090;2023-09-19T11:29:29;100622.25;;;18.53
78225;BMP280;67498;53.650;10.090;2023-09-19T11:31:56;100635.25;;;18.42
78225;BMP280;67498;53.650;10.090;2023-09-19T11:34:45;100626.19;;;18.43
78225;BMP280;67498;53.650;10.090;2023-09-19T11:39:40;100637.66;;;18.55
78225;BMP280;67498;53.650;10.090;2023-09-19T11:42:43;100630.81;;;18.63
78225;BMP280;67498;53.650;10.090;2023-09-19T11:48:18;100611.44;;;18.66
78225;BMP280;67498;53.650;10.090;2023-09-19T11:50:44;100614.31;;;18.68
78225;BMP280;67498;53.650;10.090;2023-09-19T11:53:11;100613.16;;;18.69
78225;BMP280;67498;53.650;10.090;2023-09-19T11:55:38;100608.78;;;18.66
78225;BMP280;67498;53.650;10.090;2023-09-19T11:58:04;100622.44;;;18.64
78225;BMP280;67498;53.650;10.090;2023-09-19T12:00:30;100616.16;;;18.62
78225;BMP280;67498;53.650;10.090;2023-09-19T12:02:58;100611.88;;;18.64
78225;BMP280;67498;53.650;10.090;2023-09-19T12:05:30;100601.84;;;18.68
78225;BMP280;67498;53.650;10.090;2023-09-19T12:07:58;100605.31;;;18.75
78225;BMP280;67498;53.650;10.090;2023-09-19T12:10:24;100613.34;;;18.80
78225;BMP280;67498;53.650;10.090;2023-09-19T12:12:49;100606.19;;;18.86
78225;BMP280;67498;53.650;10.090;2023-09-19T12:15:14;100601.00;;;18.92
78225;BMP280;67498;53.650;10.090;2023-09-19T12:17:41;100611.34;;;18.90
78225;BMP280;67498;53.650;10.090;2023-09-19T12:20:08;100624.19;;;18.97
78225;BMP280;67498;53.650;10.090;2023-09-19T12:22:44;100614.50;;;18.94
78225;BMP280;67498;53.650;10.090;2023-09-19T12:25:10;100605.13;;;18.93
78225;BMP280;67498;53.650;10.090;2023-09-19T12:27:46;100607.56;;;18.96
78225;BMP280;67498;53.650;10.090;2023-09-19T12:30:13;100599.72;;;19.02
78225;BMP280;67498;53.650;10.090;2023-09-19T12:32:43;100604.91;;;19.11
78225;BMP280;67498;53.650;10.090;2023-09-19T12:35:09;100619.13;;;19.14
78225;BMP280;67498;53.650;10.090;2023-09-19T12:37:43;100623.59;;;19.22
78225;BMP280;67498;53.650;10.090;2023-09-19T12:40:13;100613.81;;;19.29
78225;BMP280;67498;53.650;10.090;2023-09-19T12:42:48;100615.22;;;19.44
78225;BMP280;67498;53.650;10.090;2023-09-19T12:45:14;100610.56;;;19.54
78225;BMP280;67498;53.650;10.090;2023-09-19T12:47:40;100613.28;;;19.60
78225;BMP280;67498;53.650;10.090;2023-09-19T12:50:12;100607.72;;;19.58
78225;BMP280;67498;53.650;10.090;2023-09-19T12:52:51;100593.81;;;19.63
78225;BMP280;67498;53.650;10.090;2023-09-19T12:55:27;100594.38;;;19.72
78225;BMP280;67498;53.650;10.090;2023-09-19T12:58:02;100594.59;;;19.69
78225;BMP280;67498;53.650;10.090;2023-09-19T13:00:37;100599.81;;;19.63
78225;BMP280;67498;53.650;10.090;2023-09-19T13:05:59;100593.88;;;19.68
78225;BMP280;67498;53.650;10.090;2023-09-19T13:08:32;100604.72;;;19.70
78225;BMP280;67498;53.650;10.090;2023-09-19T13:11:05;100596.34;;;19.72
78225;BMP280;67498;53.650;10.090;2023-09-19T13:16:07;100590.63;;;19.79
78225;BMP280;67498;53.650;10.090;2023-09-19T13:18:44;100574.19;;;19.75
78225;BMP280;67498;53.650;10.090;2023-09-19T13:21:13;100577.63;;;19.81
78225;BMP280;67498;53.650;10.090;2023-09-19T13:23:54;100565.31;;;19.78
78225;BMP280;67498;53.650;10.090;2023-09-19T13:26:24;100566.50;;;19.77
78225;BMP280;67498;53.650;10.090;2023-09-19T13:28:49;100565.63;;;19.86
78225;BMP280;67498;53.650;10.090;2023-09-19T13:31:15;100566.38;;;19.86
78225;BMP280;67498;53.650;10.090;2023-09-19T13:33:48;100561.13;;;19.92
78225;BMP280;67498;53.650;10.090;2023-09-19T13:36:14;100562.19;;;19.80
78225;BMP280;67498;53.650;10.090;2023-09-19T13:38:42;100564.38;;;19.81
78225;BMP280;67498;53.650;10.090;2023-09-19T13:41:11;100556.25;;;19.85
78225;BMP280;67498;53.650;10.090;2023-09-19T13:43:37;100544.91;;;19.84
78225;BMP280;67498;53.650;10.090;2023-09-19T13:46:03;100558.38;;;19.81
78225;BMP280;67498;53.650;10.090;2023-09-19T13:48:29;100568.97;;;19.81
78225;BMP280;67498;53.650;10.090;2023-09-19T13:50:55;100553.97;;;19.78
78225;BMP280;67498;53.650;10.090;2023-09-19T13:53:20;100552.06;;;19.78
78225;BMP280;67498;53.650;10.090;2023-09-19T13:55:46;100541.72;;;19.80
78225;BMP280;67498;53.650;10.090;2023-09-19T13:58:12;100532.34;;;19.79
78225;BMP280;67498;53.650;10.090;2023-09-19T14:00:37;100539.63;;;19.84
78225;BMP280;67498;53.650;10.090;2023-09-19T14:03:03;100527.28;;;19.81
78225;BMP280;67498;53.650;10.090;2023-09-19T14:05:29;100535.44;;;19.78
78225;BMP280;67498;53.650;10.090;2023-09-19T14:07:55;100541.00;;;19.80
78225;BMP280;67498;53.650;10.090;2023-09-19T14:10:21;100528.53;;;19.86
78225;BMP280;67498;53.650;10.090;2023-09-19T14:12:46;100532.25;;;19.94
78225;BMP280;67498;53.650;10.090;2023-09-19T14:15:12;100514.00;;;20.01
78225;BMP280;67498;53.650;10.090;2023-09-19T14:17:39;100532.88;;;20.09
78225;BMP280;67498;53.650;10.090;2023-09-19T14:20:04;100531.91;;;20.12
78225;BMP280;67498;53.650;10.090;2023-09-19T14:22:31;100522.47;;;20.06
78225;BMP280;67498;53.650;10.090;2023-09-19T14:24:57;100527.56;;;20.09
78225;BMP280;67498;53.650;10.090;2023-09-19T14:27:24;100521.06;;;20.10
78225;BMP280;67498;53.650;10.090;2023-09-19T14:29:50;100526.38;;;20.10
78225;BMP280;67498;53.650;10.090;2023-09-19T14:32:15;100513.13;;;20.10